Historique des stations

Station météo de Issoudun

Altitude de la station : 141 m







Données météorologiques pour le 04/08/2021
Date
Heure
Températures Humidité Point de rosée Vitesse
du vent
Direction Rafales Windchill Pression Pluviométrie
Cumul
Date
Heure
Températures Humidité Point de rosée Vitesse
du vent
Direction Rafales Windchill Pression Pluviométrie
Cumul
04/08/2021 09:1514.7 °C95 %13.9 °C-S5 km/h14.4 1011 hPa1.6 mm
04/08/2021 09:0014.6 °C94 %13.9 °C2 km/hS3 km/h14.4 1011 hPa1.4 mm
04/08/2021 08:4514.5 °C94 %13.3 °C-S3 km/h14.4 1011 hPa1 mm
04/08/2021 08:3014.5 °C94 %13.3 °C2 km/hS6 km/h14.4 1011 hPa0.2 mm
04/08/2021 08:1514.4 °C95 %13.9 °C-ESE3 km/h14.4 1011 hPa-
04/08/2021 08:0014.2 °C95 %13.3 °C-ESE5 km/h14.4 1011 hPa-
04/08/2021 07:4514.1 °C94 %13.3 °C2 km/hESE3 km/h13.9 1011 hPa-
04/08/2021 07:3013.9 °C95 %13.3 °C3 km/hESE5 km/h13.9 1011 hPa-
04/08/2021 07:1513.8 °C94 %12.8 °C2 km/hESE3 km/h13.9 1011 hPa-
04/08/2021 07:0013.8 °C94 %12.8 °C2 km/hESE5 km/h13.9 1011 hPa-
04/08/2021 06:4513.6 °C94 %12.8 °C5 km/hESE5 km/h13.9 1011 hPa-
04/08/2021 06:3013.4 °C94 %12.8 °C2 km/hESE3 km/h13.3 1011 hPa-
04/08/2021 06:1513.4 °C94 %12.2 °C3 km/hESE5 km/h13.3 1011 hPa-
04/08/2021 06:0013.3 °C94 %12.2 °C2 km/hESE5 km/h13.3 1011 hPa-
04/08/2021 05:4513.2 °C94 %12.2 °C-ESE2 km/h13.3 1011 hPa-
04/08/2021 05:3013.1 °C94 %12.2 °C2 km/hESE5 km/h13.3 1011 hPa-
04/08/2021 05:1513.1 °C94 %12.2 °C2 km/hESE3 km/h13.3 1011 hPa-
04/08/2021 05:0113.1 °C94 %12.2 °C2 km/hESE3 km/h13.3 1011 hPa-
04/08/2021 04:4513.1 °C94 %12.2 °C2 km/hESE3 km/h13.3 1011 hPa-
04/08/2021 04:3113.2 °C94 %12.2 °C3 km/hESE5 km/h13.3 1012 hPa-
04/08/2021 04:1613.2 °C94 %12.2 °C3 km/hESE5 km/h13.3 1012 hPa-
04/08/2021 04:0013.1 °C94 %12.2 °C2 km/hESE5 km/h13.3 1012 hPa-
04/08/2021 03:4612.9 °C94 %12.2 °C3 km/hESE5 km/h12.8 1012 hPa-
04/08/2021 03:3112.9 °C94 %12.2 °C5 km/hESE5 km/h12.8 1012 hPa-
04/08/2021 03:1612.9 °C94 %12.2 °C5 km/hESE6 km/h12.8 1012 hPa-
04/08/2021 03:0113.0 °C94 %12.2 °C5 km/hESE6 km/h12.8 1012 hPa-
04/08/2021 02:4613.0 °C94 %12.2 °C5 km/hESE6 km/h12.8 1013 hPa-
04/08/2021 02:3112.9 °C93 %11.7 °C5 km/hESE6 km/h12.8 1013 hPa-
04/08/2021 02:1612.8 °C93 %11.7 °C3 km/hESE5 km/h12.8 1013 hPa-
04/08/2021 02:0112.4 °C92 %11.1 °C3 km/hSSE3 km/h12.2 1013 hPa-
04/08/2021 01:4612.8 °C93 %11.7 °C2 km/hSSE3 km/h12.8 1013 hPa-
04/08/2021 01:3113.0 °C93 %12.2 °C-SSE2 km/h12.8 1013 hPa-
04/08/2021 01:1513.2 °C92 %12.2 °C2 km/hSSE3 km/h13.3 1013 hPa-
04/08/2021 01:0013.4 °C92 %12.2 °C2 km/hSSE3 km/h13.3 1013 hPa-
04/08/2021 00:4513.6 °C92 %12.2 °C2 km/hSSE5 km/h13.3 1013 hPa-
04/08/2021 00:3013.7 °C92 %12.8 °C3 km/hSSE5 km/h13.9 1013 hPa-
04/08/2021 00:1513.8 °C92 %12.8 °C-SSE2 km/h13.9 1013 hPa-
04/08/2021 00:0014.1 °C92 %12.8 °C-SSE5 km/h13.9 1013 hPa-


Minima :

Température : 12.4 °C
Humidité : 92 %
Point de rosée : 11.1 °C
Vent moyen : 2 km/h
Windchill : 12.2
Pression atm. : 1011 hPa
Maxima :

Température : 14.7 °C
Humidité : 95 %
Point de rosée : 13.9 °C
Vent moyen : 5 km/h
Windchill : 14.4
Pression atm. : 1013 hPa
Rafales max : 6 km/h
Cumul de pluie sur 24H : 1.6 mm

Issoudun est une commune du département Indre (36).
La station météorologique du réseau de l'association la plus proche de Issoudun est celle de Ménétréols-sous-Vatan



Icône Facebook Association Météo Centre Icône Twitter Association Météo Centre Icône Chaîne Youtube Association Météo Centre Icône contact Association Météo Centre Icône Insta Association Météo Centre